This is the latest recevied weather packets stored in our database for station/object W9GWP. If no packets are shown the sender has not sent any weather packets the latest 10 day(s).
| Time | Temp. | Humidity | Pressure | Rain* | Wind** | Luminosity | Snow |
|---|---|---|---|---|---|---|---|
| 1777870323 | 15° C | 66% | 1034.2 hPa | 0 mm | - | 0 W/m² | - |
| 1777869421 | 13.89° C | 69% | 1033.9 hPa | 0 mm | - | 0 W/m² | - |
| 1777868518 | 13.89° C | 70% | 1034.2 hPa | 0 mm | - | 0 W/m² | - |
| 1777867613 | 13.89° C | 69% | 1034.2 hPa | 0 mm | - | 0 W/m² | - |
| 1777866709 | 14.44° C | 68% | 1034.3 hPa | 0 mm | - | 0 W/m² | - |
| 1777865807 | 14.44° C | 67% | 1034.6 hPa | 0 mm | - | 0 W/m² | - |
| 1777864904 | 15° C | 66% | 1034.5 hPa | 0 mm | - | 0 W/m² | - |
| 1777864000 | 15° C | 66% | 1034.6 hPa | 0 mm | - | 0 W/m² | - |
| 1777863096 | 15° C | 65% | 1034.8 hPa | 0 mm | - | 0 W/m² | - |
| 1777862193 | 13.89° C | 68% | 1034.6 hPa | 0 mm | - | 0 W/m² | - |
| 1777861293 | 14.44° C | 67% | 1035 hPa | 0 mm | - | 0 W/m² | - |
| 1777860390 | 13.89° C | 68% | 1034.6 hPa | 0 mm | - | 0 W/m² | - |
| 1777859485 | 13.89° C | 68% | 1034.5 hPa | 0 mm | - | 0 W/m² | - |
| 1777858581 | 15° C | 65% | 1034.8 hPa | 0 mm | - | 0 W/m² | - |
| 1777857679 | 16.11° C | 61% | 1034.3 hPa | 0 mm | - | 0 W/m² | - |
| 1777856780 | 17.22° C | 56% | 1034 hPa | 0 mm | - | 0 W/m² | - |
| 1777855876 | 18.33° C | 53% | 1033.7 hPa | 0 mm | - | 0 W/m² | - |
| 1777854973 | 18.89° C | 51% | 1034 hPa | 0 mm | - | 9 W/m² | - |
| 1777854070 | 19.44° C | 49% | 1034.1 hPa | 0 mm | - | 20 W/m² | - |
| 1777853167 | 19.44° C | 48% | 1033.9 hPa | 0 mm | - | 27 W/m² | - |
| 1777852264 | 20° C | 47% | 1034.2 hPa | 0 mm | - | 35 W/m² | - |
| 1777851363 | 20.56° C | 45% | 1033.9 hPa | 0 mm | - | 128 W/m² | - |
| 1777850459 | 20.56° C | 45% | 1034.1 hPa | 0 mm | - | 171 W/m² | - |
| 1777849555 | 20.56° C | 44% | 1034.3 hPa | 0 mm | - | 220 W/m² | - |
| 1777848650 | 20.56° C | 44% | 1034.5 hPa | 0 mm | - | 252 W/m² | - |
* Rain latest hour (hover to see other rain measurements)
** Current wind speed in m/s (hover to see current wind gust speed)